Center Brunswick, New York
Current Conditions -  °F | °C
As of 6:51 AM on Thursday 18 Dec 2014 (Local Time) from KALB Reporting Station
Light Snow Light Snow  
Wind Chill: 24°   Ceiling: 2500
Heat Index: 35°   Visibility: 10mi
Dew Point: 27°   Wind: 18mph
Humidity: 72%   Direction: 300°WNW
Pressure: 29.89"   Gusts: 23mph
Location:  42.7478°N, 73.6049°W
Report Text: KALB 181151Z 30016G20KT 10SM -SN FEW018 OVC025 02/M03 A2989 RMK AO2 SNE09B42 SLP125 PCPN VRY LGT 4/001 P0000 60000 70007 T00171028 10022 20017 53015
Loading
Personal Weather Stations






























Interactive Weather Map New forecast layout! Learn more

10-Day Weather Forecast

Advertisements
Track Severe Weather on mobile